createdAt,value
2022-11-23T00:01:35.038Z,1.77
2022-11-23T00:04:04.637Z,1.76
2022-11-23T00:06:32.810Z,1.78
2022-11-23T00:09:00.397Z,1.80
2022-11-23T00:11:28.959Z,1.77
2022-11-23T00:13:57.923Z,1.80
2022-11-23T00:16:27.658Z,1.77
2022-11-23T00:18:55.738Z,1.76
2022-11-23T00:21:24.189Z,1.74
2022-11-23T00:23:52.447Z,1.76
2022-11-23T00:26:20.913Z,1.79
2022-11-23T00:28:48.695Z,1.78
2022-11-23T00:31:19.223Z,1.83
2022-11-23T00:33:49.718Z,1.81
2022-11-23T00:36:17.719Z,1.76
2022-11-23T00:38:45.678Z,1.79
2022-11-23T00:41:15.064Z,1.78
2022-11-23T00:43:42.914Z,1.83
2022-11-23T00:46:14.417Z,1.83
2022-11-23T00:48:43.814Z,1.82
2022-11-23T00:51:15.549Z,1.80
2022-11-23T00:53:43.192Z,1.82
2022-11-23T00:56:11.319Z,1.84
2022-11-23T00:58:39.640Z,1.82
2022-11-23T01:01:08.824Z,1.83
2022-11-23T01:03:37.277Z,1.85
2022-11-23T01:06:08.334Z,1.87
2022-11-23T01:08:36.144Z,1.84
2022-11-23T01:11:04.895Z,1.88
2022-11-23T01:13:32.584Z,1.93
2022-11-23T01:16:00.281Z,1.89
2022-11-23T01:18:28.075Z,1.89
2022-11-23T01:20:56.012Z,1.88
2022-11-23T01:23:24.981Z,1.90
2022-11-23T01:25:56.781Z,1.82
2022-11-23T01:28:24.773Z,1.81
2022-11-23T01:30:52.396Z,1.83
2022-11-23T01:33:19.990Z,1.85
2022-11-23T01:35:47.623Z,1.88
2022-11-23T01:38:18.148Z,1.83
2022-11-23T01:40:47.502Z,1.86
2022-11-23T01:43:16.938Z,1.82
2022-11-23T01:45:45.758Z,1.83
2022-11-23T01:48:17.565Z,1.82
2022-11-23T01:50:46.403Z,1.87
2022-11-23T01:53:14.029Z,1.90
2022-11-23T01:55:41.884Z,1.88
2022-11-23T01:58:11.478Z,1.88
2022-11-23T02:00:39.043Z,1.91
2022-11-23T02:03:07.250Z,1.85
2022-11-23T02:05:36.912Z,1.83
2022-11-23T02:08:05.056Z,1.75
2022-11-23T02:10:32.832Z,1.73
2022-11-23T02:13:04.664Z,1.75
2022-11-23T02:15:33.656Z,1.79
2022-11-23T02:18:03.371Z,1.80
2022-11-23T02:20:31.107Z,1.80
2022-11-23T02:23:08.296Z,1.79
2022-11-23T02:25:44.627Z,1.75
2022-11-23T02:28:16.643Z,1.78
2022-11-23T02:30:45.384Z,1.80
2022-11-23T02:33:12.966Z,1.76
2022-11-23T02:35:49.407Z,1.74
2022-11-23T02:38:17.374Z,1.81
2022-11-23T02:40:45.204Z,1.76
2022-11-23T02:43:14.828Z,1.79
2022-11-23T02:45:46.554Z,1.75
2022-11-23T02:48:14.168Z,1.73
2022-11-23T02:50:41.761Z,1.77
2022-11-23T02:53:09.344Z,1.76
2022-11-23T02:55:37.088Z,1.81
2022-11-23T02:58:04.888Z,1.78
2022-11-23T03:00:34.289Z,1.71
2022-11-23T03:03:02.786Z,1.70
2022-11-23T03:05:30.430Z,1.73
2022-11-23T03:07:58.083Z,1.75
2022-11-23T03:10:25.966Z,1.75
2022-11-23T03:12:55.336Z,1.82
2022-11-23T03:15:23.106Z,1.74
2022-11-23T03:17:52.329Z,1.71
2022-11-23T03:20:20.142Z,1.75
2022-11-23T03:22:47.730Z,1.77
2022-11-23T03:25:15.433Z,1.74
2022-11-23T03:27:43.011Z,1.74
2022-11-23T03:30:11.514Z,1.78
2022-11-23T03:32:39.090Z,1.73
2022-11-23T03:35:08.785Z,1.82
2022-11-23T03:37:36.358Z,1.80
2022-11-23T03:40:04.477Z,1.76
2022-11-23T03:42:32.050Z,1.77
2022-11-23T03:44:59.623Z,1.69
2022-11-23T03:47:27.255Z,1.72
2022-11-23T03:49:54.818Z,1.75
2022-11-23T03:52:23.745Z,1.80
2022-11-23T03:54:51.393Z,1.78
2022-11-23T03:57:19.044Z,1.76
2022-11-23T03:59:46.638Z,1.81
2022-11-23T04:02:14.215Z,1.82
2022-11-23T04:04:41.829Z,1.78
2022-11-23T04:07:09.423Z,1.76
2022-11-23T04:09:38.370Z,1.78
2022-11-23T04:12:06.473Z,1.99
2022-11-23T04:14:34.023Z,2.06
2022-11-23T04:17:02.243Z,1.93
2022-11-23T04:19:30.298Z,1.88
2022-11-23T04:21:59.398Z,1.83
2022-11-23T04:24:26.984Z,1.80
2022-11-23T04:26:55.940Z,1.81
2022-11-23T04:29:23.547Z,1.73
2022-11-23T04:31:51.136Z,1.81
2022-11-23T04:34:18.821Z,1.81
2022-11-23T04:36:46.416Z,1.81
2022-11-23T04:39:14.389Z,1.84
2022-11-23T04:41:41.986Z,1.87
2022-11-23T04:44:11.083Z,1.85
2022-11-23T04:46:38.679Z,1.85
2022-11-23T04:49:06.307Z,1.84
2022-11-23T04:51:33.889Z,1.84
2022-11-23T04:54:01.472Z,1.88
2022-11-23T04:56:29.019Z,1.83
2022-11-23T04:58:56.603Z,1.88
2022-11-23T05:01:25.596Z,1.90
2022-11-23T05:03:53.300Z,1.93
2022-11-23T05:06:20.858Z,1.93
2022-11-23T05:08:48.779Z,1.92
2022-11-23T05:11:16.372Z,1.89
2022-11-23T05:13:43.949Z,1.88
2022-11-23T05:16:11.524Z,1.86
2022-11-23T05:18:40.475Z,1.87
2022-11-23T05:21:08.058Z,1.85
2022-11-23T05:23:35.634Z,1.86
2022-11-23T05:26:03.255Z,1.88
2022-11-23T05:28:40.517Z,1.83
2022-11-23T05:31:09.183Z,1.81
2022-11-23T05:33:37.139Z,1.82
2022-11-23T05:36:06.785Z,1.73
2022-11-23T05:38:34.408Z,1.73
2022-11-23T05:41:02.023Z,1.71
2022-11-23T05:43:29.575Z,1.70
2022-11-23T05:46:00.000Z,1.69
2022-11-23T05:48:27.597Z,1.71
2022-11-23T05:50:55.190Z,1.78
2022-11-23T05:53:24.147Z,1.75
2022-11-23T05:55:51.723Z,1.69
2022-11-23T05:58:19.303Z,1.72
2022-11-23T06:00:46.913Z,1.78
2022-11-23T06:03:17.621Z,1.77
2022-11-23T06:05:47.952Z,1.68
2022-11-23T06:08:15.555Z,1.67
2022-11-23T06:10:44.558Z,1.70
2022-11-23T06:13:12.174Z,1.68
2022-11-23T06:15:39.717Z,1.68
2022-11-23T06:18:07.406Z,1.79
2022-11-23T06:20:35.006Z,1.73
2022-11-23T06:23:02.619Z,1.75
2022-11-23T06:25:30.271Z,1.78
2022-11-23T06:28:00.195Z,1.76
2022-11-23T06:30:29.391Z,1.77
2022-11-23T06:32:57.094Z,1.76
2022-11-23T06:35:25.180Z,1.68
2022-11-23T06:37:54.510Z,1.66
2022-11-23T06:40:22.475Z,1.67
2022-11-23T06:42:50.015Z,1.69
2022-11-23T06:45:18.967Z,1.69
2022-11-23T06:47:46.553Z,1.73
2022-11-23T06:50:15.237Z,1.76
2022-11-23T06:52:42.805Z,1.75
2022-11-23T06:55:10.539Z,1.81
2022-11-23T06:57:38.083Z,1.85
2022-11-23T07:00:06.822Z,1.86
2022-11-23T07:02:35.728Z,2.07
2022-11-23T07:05:03.282Z,2.06
2022-11-23T07:07:30.852Z,2.01
2022-11-23T07:10:01.580Z,1.91
2022-11-23T07:12:31.424Z,2.02
2022-11-23T07:14:58.962Z,1.97
2022-11-23T07:17:26.510Z,2.05
2022-11-23T07:19:55.389Z,1.93
2022-11-23T07:22:22.932Z,2.09
2022-11-23T07:24:50.486Z,2.13
2022-11-23T07:27:20.459Z,2.09
2022-11-23T07:29:48.098Z,2.04
2022-11-23T07:32:15.741Z,2.13
2022-11-23T07:34:43.270Z,2.02
2022-11-23T07:37:12.235Z,2.10
2022-11-23T07:39:56.792Z,2.08
2022-11-23T07:42:33.663Z,2.10
2022-11-23T07:45:03.764Z,2.21
2022-11-23T07:47:31.359Z,2.14
2022-11-23T07:49:59.085Z,2.10
2022-11-23T07:52:28.025Z,2.24
2022-11-23T07:54:55.630Z,2.25
2022-11-23T07:57:23.160Z,2.25
2022-11-23T07:59:50.719Z,2.27
2022-11-23T08:02:18.343Z,2.29
2022-11-23T08:04:45.950Z,2.24
2022-11-23T08:07:13.759Z,2.41
2022-11-23T08:09:42.684Z,2.33
2022-11-23T08:12:10.264Z,2.45
2022-11-23T08:14:37.797Z,2.51
2022-11-23T08:17:05.341Z,2.59
2022-11-23T08:19:32.907Z,2.57
2022-11-23T08:22:00.444Z,2.55
2022-11-23T08:24:27.971Z,2.49
2022-11-23T08:26:57.383Z,2.55
2022-11-23T08:29:25.310Z,2.79
2022-11-23T08:31:53.014Z,2.73
2022-11-23T08:34:20.575Z,2.66
2022-11-23T08:36:49.047Z,2.65
2022-11-23T08:39:17.457Z,2.63
2022-11-23T08:41:44.988Z,2.70
2022-11-23T08:44:13.889Z,2.83
2022-11-23T08:46:41.475Z,2.82
2022-11-23T08:49:09.236Z,2.81
2022-11-23T08:51:36.928Z,2.88
2022-11-23T08:54:04.563Z,2.91
2022-11-23T08:56:32.122Z,2.98
2022-11-23T08:58:59.719Z,2.94
2022-11-23T09:01:28.674Z,2.97
2022-11-23T09:04:08.760Z,2.89
2022-11-23T09:06:36.494Z,2.94
2022-11-23T09:09:04.464Z,3.04
2022-11-23T09:11:32.074Z,3.11
2022-11-23T09:13:59.840Z,3.09
2022-11-23T09:16:33.659Z,3.10
2022-11-23T09:19:01.712Z,3.17
2022-11-23T09:21:33.235Z,3.15
2022-11-23T09:24:00.895Z,3.19
2022-11-23T09:26:28.594Z,3.18
2022-11-23T09:28:56.170Z,3.22
2022-11-23T09:31:26.788Z,3.21
2022-11-23T09:33:55.731Z,3.24
2022-11-23T09:36:23.780Z,3.25
2022-11-23T09:38:56.623Z,3.30
2022-11-23T09:41:42.735Z,3.46
2022-11-23T09:44:15.696Z,3.49
2022-11-23T09:46:53.284Z,3.45
2022-11-23T09:49:23.633Z,3.56
2022-11-23T09:51:51.684Z,3.53
2022-11-23T09:54:26.306Z,3.52
2022-11-23T09:57:01.366Z,3.62
2022-11-23T09:59:38.090Z,3.56
2022-11-23T10:02:06.098Z,3.61
2022-11-23T10:04:36.462Z,3.59
2022-11-23T10:07:13.848Z,3.54
2022-11-23T10:09:47.304Z,3.58
2022-11-23T10:12:39.788Z,3.62
2022-11-23T10:15:14.096Z,3.61
2022-11-23T10:18:17.011Z,3.70
2022-11-23T10:20:52.924Z,3.66
2022-11-23T10:23:28.582Z,3.76
2022-11-23T10:25:56.170Z,3.64
2022-11-23T10:28:24.399Z,3.61
2022-11-23T10:30:57.626Z,3.59
2022-11-23T10:33:30.993Z,3.79
2022-11-23T10:35:59.874Z,3.77
2022-11-23T10:38:28.582Z,3.93
2022-11-23T10:41:04.067Z,3.88
2022-11-23T10:43:35.533Z,3.83
2022-11-23T10:46:26.381Z,3.81
2022-11-23T10:48:54.655Z,3.83
2022-11-23T10:51:29.710Z,3.86
2022-11-23T10:54:04.972Z,3.95
2022-11-23T10:56:33.853Z,3.90
2022-11-23T10:59:01.675Z,4.07
2022-11-23T11:01:30.615Z,4.25
2022-11-23T11:04:03.712Z,4.45
2022-11-23T11:06:35.998Z,4.61
2022-11-23T11:09:10.786Z,4.76
2022-11-23T11:11:46.782Z,4.74
2022-11-23T11:14:16.469Z,4.46
2022-11-23T11:16:49.384Z,4.74
2022-11-23T11:19:27.600Z,4.86
2022-11-23T11:21:56.946Z,4.81
2022-11-23T11:24:29.802Z,4.83
2022-11-23T11:27:00.777Z,4.66
2022-11-23T11:29:38.700Z,4.61
2022-11-23T11:32:10.261Z,4.53
2022-11-23T11:34:43.845Z,4.55
2022-11-23T11:37:26.620Z,4.68
2022-11-23T11:39:57.104Z,4.69
2022-11-23T11:42:28.799Z,4.75
2022-11-23T11:44:58.995Z,5.00
2022-11-23T11:47:31.176Z,5.00
2022-11-23T11:50:01.004Z,4.99
2022-11-23T11:52:34.046Z,5.07
2022-11-23T11:55:09.084Z,5.07
2022-11-23T11:57:39.998Z,5.04
2022-11-23T12:00:13.376Z,4.95
2022-11-23T12:02:44.225Z,4.83
2022-11-23T12:05:16.908Z,4.96
2022-11-23T12:07:53.893Z,4.88
2022-11-23T12:10:27.648Z,4.93
2022-11-23T12:12:56.459Z,5.05
2022-11-23T12:18:42.493Z,4.96
2022-11-23T12:21:19.149Z,5.12
2022-11-23T12:23:53.621Z,5.06
2022-11-23T12:26:25.573Z,5.10
2022-11-23T12:29:12.639Z,4.93
2022-11-23T12:31:44.064Z,4.84
2022-11-23T12:34:28.235Z,4.83
2022-11-23T12:37:10.481Z,4.78
2022-11-23T12:40:12.964Z,4.98
2022-11-23T12:42:43.779Z,5.01
2022-11-23T12:45:23.410Z,4.98
2022-11-23T12:47:58.185Z,5.01
2022-11-23T12:50:31.600Z,5.09
2022-11-23T12:53:04.212Z,4.92
2022-11-23T12:55:40.144Z,5.07
2022-11-23T12:58:13.165Z,5.00
2022-11-23T13:00:43.335Z,5.52
2022-11-23T13:03:32.999Z,5.22
2022-11-23T13:06:37.460Z,4.80
2022-11-23T13:09:27.940Z,4.71
2022-11-23T13:12:18.969Z,4.46
2022-11-23T13:14:52.507Z,4.49
2022-11-23T13:17:27.799Z,4.43
2022-11-23T13:20:10.185Z,4.42
2022-11-23T13:22:39.400Z,4.67
2022-11-23T13:25:22.528Z,4.67
2022-11-23T13:28:00.734Z,4.97
2022-11-23T13:30:59.231Z,4.78
2022-11-23T13:33:35.769Z,4.88
2022-11-23T13:36:10.472Z,4.89
2022-11-23T13:38:42.136Z,4.68
2022-11-23T13:41:56.013Z,4.50
2022-11-23T13:44:27.033Z,4.41
2022-11-23T13:47:09.021Z,4.28
2022-11-23T13:49:42.002Z,4.22
2022-11-23T13:52:36.241Z,4.28
2022-11-23T13:55:10.128Z,4.15
2022-11-23T13:57:38.983Z,4.05
2022-11-23T14:00:43.853Z,3.98
2022-11-23T14:03:49.103Z,3.91
2022-11-23T14:06:23.015Z,3.78
2022-11-23T14:08:53.689Z,3.71
2022-11-23T14:11:23.626Z,3.58
2022-11-23T14:13:55.142Z,3.50
2022-11-23T14:16:35.829Z,3.43
2022-11-23T14:19:08.066Z,3.35
2022-11-23T14:21:43.790Z,3.35
2022-11-23T14:24:48.338Z,3.43
2022-11-23T14:27:46.892Z,3.55
2022-11-23T14:30:42.061Z,3.69
2022-11-23T14:33:24.303Z,3.64
2022-11-23T14:35:59.032Z,3.53
2022-11-23T14:38:51.177Z,3.42
2022-11-23T14:41:20.364Z,3.31
2022-11-23T14:43:48.224Z,3.20
2022-11-23T14:46:19.773Z,3.08
2022-11-23T14:48:47.744Z,2.98
2022-11-23T14:51:18.316Z,2.93
2022-11-23T14:53:49.458Z,2.87
2022-11-23T14:56:24.474Z,2.85
2022-11-23T14:58:52.337Z,2.79
2022-11-23T15:01:22.151Z,2.68
2022-11-23T15:03:57.716Z,2.63
2022-11-23T15:06:28.435Z,2.55
2022-11-23T15:09:05.147Z,2.47
2022-11-23T15:11:38.263Z,2.41
2022-11-23T15:14:18.572Z,2.38
2022-11-23T15:16:46.144Z,2.39
2022-11-23T15:19:21.079Z,2.34
2022-11-23T15:21:49.415Z,2.25
2022-11-23T15:24:26.324Z,2.11
2022-11-23T15:26:54.503Z,2.09
2022-11-23T15:29:34.370Z,2.03
2022-11-23T15:34:50.732Z,1.84
2022-11-23T15:37:19.302Z,1.72
2022-11-23T15:39:48.778Z,1.69
2022-11-23T15:42:20.964Z,1.65
2022-11-23T15:44:51.533Z,1.66
2022-11-23T15:47:27.286Z,1.62
2022-11-23T15:49:59.714Z,1.58
2022-11-23T15:52:29.549Z,1.49
2022-11-23T15:55:07.514Z,1.48
2022-11-23T15:57:37.146Z,1.51
2022-11-23T16:00:06.732Z,1.47
2022-11-23T16:02:34.934Z,1.44
2022-11-23T16:05:12.449Z,1.41
2022-11-23T16:07:51.708Z,1.44
2022-11-23T16:10:22.123Z,1.54
2022-11-23T16:12:51.133Z,1.52
2022-11-23T16:15:37.607Z,1.64
2022-11-23T16:18:08.133Z,1.76
2022-11-23T16:20:35.767Z,1.94
2022-11-23T16:23:05.208Z,2.02
2022-11-23T16:25:35.269Z,2.10
2022-11-23T16:28:04.585Z,2.23
2022-11-23T16:30:37.560Z,2.29
2022-11-23T16:33:05.212Z,2.35
2022-11-23T16:35:32.999Z,2.41
2022-11-23T16:38:00.563Z,2.56
2022-11-23T16:40:28.105Z,2.59
2022-11-23T16:42:57.126Z,2.65
2022-11-23T16:45:24.749Z,2.66
2022-11-23T16:47:54.067Z,2.66
2022-11-23T16:50:22.100Z,2.71
2022-11-23T16:52:49.682Z,2.72
2022-11-23T16:55:17.678Z,2.73
2022-11-23T16:57:45.533Z,2.69
2022-11-23T17:00:16.900Z,2.71
2022-11-23T17:02:44.538Z,2.69
2022-11-23T17:05:17.712Z,2.64
2022-11-23T17:07:45.636Z,2.59
2022-11-23T17:10:14.202Z,2.61
2022-11-23T17:12:47.333Z,2.60
2022-11-23T17:15:16.608Z,2.62
2022-11-23T17:17:44.130Z,2.55
2022-11-23T17:20:13.545Z,2.68
2022-11-23T17:22:41.193Z,2.68
2022-11-23T17:25:14.422Z,2.66
2022-11-23T17:27:43.647Z,2.62
2022-11-23T17:30:14.591Z,2.61
2022-11-23T17:32:43.903Z,2.56
2022-11-23T17:35:11.533Z,2.60
2022-11-23T17:37:39.100Z,2.58
2022-11-23T17:40:10.737Z,2.51
2022-11-23T17:42:38.268Z,2.50
2022-11-23T17:45:06.491Z,2.48
2022-11-23T17:47:34.251Z,2.50
2022-11-23T17:50:03.771Z,2.53
2022-11-23T17:52:31.302Z,2.51
2022-11-23T17:54:58.858Z,2.55
2022-11-23T17:57:27.851Z,2.60
2022-11-23T17:59:59.270Z,2.57
2022-11-23T18:02:29.452Z,2.54
2022-11-23T18:04:58.351Z,2.56
2022-11-23T18:07:27.294Z,2.53
2022-11-23T18:09:55.203Z,2.53
2022-11-23T18:12:22.801Z,2.54
2022-11-23T18:14:50.364Z,2.53
2022-11-23T18:17:18.840Z,2.50
2022-11-23T18:19:46.544Z,2.48
2022-11-23T18:22:14.076Z,2.43
2022-11-23T18:24:43.026Z,2.41
2022-11-23T18:27:10.592Z,2.33
2022-11-23T18:29:40.137Z,2.31
2022-11-23T18:32:08.484Z,2.26
2022-11-23T18:34:36.121Z,2.24
2022-11-23T18:37:03.636Z,2.24
2022-11-23T18:39:31.443Z,2.23
2022-11-23T18:42:05.512Z,2.19
2022-11-23T18:44:33.584Z,2.14
2022-11-23T18:47:01.137Z,2.15
2022-11-23T18:49:28.688Z,2.16
2022-11-23T18:51:56.339Z,2.19
2022-11-23T18:54:23.918Z,2.15
2022-11-23T18:56:51.473Z,2.17
2022-11-23T18:59:42.463Z,2.21
2022-11-23T19:02:09.922Z,2.27
2022-11-23T19:04:38.633Z,2.25
2022-11-23T19:07:06.235Z,2.26
2022-11-23T19:09:34.695Z,2.24
2022-11-23T19:12:02.567Z,2.27
2022-11-23T19:14:38.956Z,2.28
2022-11-23T19:17:06.540Z,2.29
2022-11-23T19:19:34.287Z,2.27
2022-11-23T19:22:02.296Z,2.27
2022-11-23T19:24:29.998Z,2.25
2022-11-23T19:26:57.534Z,2.26
2022-11-23T19:29:27.237Z,2.24
2022-11-23T19:31:56.196Z,2.31
2022-11-23T19:34:31.903Z,2.32
2022-11-23T19:36:59.645Z,2.24
2022-11-23T19:39:27.177Z,2.26
2022-11-23T19:41:54.710Z,2.25
2022-11-23T19:44:22.482Z,2.23
2022-11-23T19:46:50.155Z,2.25
2022-11-23T19:49:19.079Z,2.20
2022-11-23T19:51:50.946Z,2.24
2022-11-23T19:54:18.483Z,2.31
2022-11-23T19:56:46.073Z,2.29
2022-11-23T19:59:14.196Z,2.25
2022-11-23T20:01:41.812Z,2.29
2022-11-23T20:04:10.794Z,2.29
2022-11-23T20:06:42.437Z,2.28
2022-11-23T20:09:11.741Z,2.25
2022-11-23T20:11:40.660Z,2.25
2022-11-23T20:14:08.472Z,2.32
2022-11-23T20:16:36.633Z,2.28
2022-11-23T20:19:06.452Z,2.33
2022-11-23T20:21:35.248Z,2.30
2022-11-23T20:24:06.054Z,2.36
2022-11-23T20:26:34.234Z,2.44
2022-11-23T20:29:02.061Z,2.46
2022-11-23T20:31:30.723Z,2.41
2022-11-23T20:33:58.458Z,2.48
2022-11-23T20:36:27.452Z,2.43
2022-11-23T20:38:55.758Z,2.39
2022-11-23T20:41:26.325Z,2.45
2022-11-23T20:43:55.873Z,2.52
2022-11-23T20:46:38.564Z,2.46
2022-11-23T20:49:11.472Z,2.50
2022-11-23T20:51:39.014Z,2.49
2022-11-23T20:54:06.967Z,2.50
2022-11-23T20:56:35.952Z,2.51
2022-11-23T20:59:04.622Z,2.55
2022-11-23T21:01:32.627Z,2.59
2022-11-23T21:04:00.498Z,2.59
2022-11-23T21:06:28.932Z,2.64
2022-11-23T21:08:56.737Z,2.58
2022-11-23T21:11:43.788Z,2.60
2022-11-23T21:14:17.940Z,2.59
2022-11-23T21:16:52.676Z,2.59
2022-11-23T21:19:21.932Z,2.56
2022-11-23T21:21:49.803Z,2.59
2022-11-23T21:24:17.650Z,2.59
2022-11-23T21:26:45.367Z,2.61
2022-11-23T21:29:14.533Z,2.60
2022-11-23T21:31:43.755Z,2.61
2022-11-23T21:34:17.927Z,2.63
2022-11-23T21:36:45.547Z,2.60
2022-11-23T21:39:13.899Z,2.63
2022-11-23T21:41:41.738Z,2.63
2022-11-23T21:44:09.978Z,2.61
2022-11-23T21:46:40.244Z,2.63
2022-11-23T21:49:09.043Z,2.63
2022-11-23T21:51:37.783Z,2.59
2022-11-23T21:54:07.068Z,2.64
2022-11-23T21:56:34.738Z,2.61
2022-11-23T21:59:02.426Z,2.61
2022-11-23T22:01:31.396Z,2.63
2022-11-23T22:04:02.163Z,2.63
2022-11-23T22:06:30.464Z,2.63
2022-11-23T22:08:59.710Z,2.65
2022-11-23T22:11:28.435Z,2.65
2022-11-23T22:13:57.308Z,2.62
2022-11-23T22:16:26.275Z,2.66
2022-11-23T22:18:55.921Z,2.67
2022-11-23T22:21:27.079Z,2.68
2022-11-23T22:23:54.846Z,2.67
2022-11-23T22:26:22.888Z,2.70
2022-11-23T22:28:52.391Z,2.72
2022-11-23T22:31:21.863Z,2.68
2022-11-23T22:33:49.871Z,2.69
2022-11-23T22:36:18.932Z,2.71
2022-11-23T22:38:48.160Z,2.71
2022-11-23T22:41:17.571Z,2.71
2022-11-23T22:43:45.398Z,2.72
2022-11-23T22:46:14.238Z,2.72
2022-11-23T22:48:42.897Z,2.74
2022-11-23T22:51:12.229Z,2.73
2022-11-23T22:53:44.566Z,2.68
2022-11-23T22:56:15.214Z,2.63
2022-11-23T22:58:44.404Z,2.65
2022-11-23T23:01:13.670Z,2.65
2022-11-23T23:03:42.069Z,2.65
2022-11-23T23:06:15.767Z,2.66
2022-11-23T23:08:43.390Z,2.65
2022-11-23T23:11:11.416Z,2.64
2022-11-23T23:13:40.573Z,2.66
2022-11-23T23:16:10.876Z,2.59
2022-11-23T23:18:38.678Z,2.60
2022-11-23T23:21:10.718Z,2.56
2022-11-23T23:23:38.668Z,2.56
2022-11-23T23:26:06.338Z,2.55
2022-11-23T23:28:34.322Z,2.53
2022-11-23T23:31:04.733Z,2.52
2022-11-23T23:33:33.328Z,2.58
2022-11-23T23:36:04.370Z,2.56
2022-11-23T23:38:32.160Z,2.53
2022-11-23T23:40:59.800Z,2.49
2022-11-23T23:43:27.626Z,2.49
2022-11-23T23:45:58.064Z,2.45
2022-11-23T23:48:29.440Z,2.44
2022-11-23T23:50:57.308Z,2.42
2022-11-23T23:53:25.153Z,2.43
2022-11-23T23:55:56.812Z,2.44
2022-11-23T23:58:24.396Z,2.46
